Time;durP1;ratioP1;P1;durP2;ratioP2;P2;SDS_P1;SDS_P2;PMS_P1;PMS_P2;Temp;Humidity;BMP_temperature;BMP_pressure;BME280_temperature;BME280_humidity;BME280_pressure;Samples;Min_cycle;Max_cycle;Signal;HPM_P1;HPM_P2
2023/12/09 00:00:22;;;;;;;;;11.00;11.00;;;;;13.28;100.00;100709.09;2088092;28;46625;-56
2023/12/09 00:01:23;;;;;;;;;11.00;11.00;;;;;13.27;100.00;100702.88;2087565;28;46724;-55
2023/12/09 00:02:23;;;;;;;;;14.00;12.00;;;;;13.27;100.00;100700.22;2087733;28;46699;-56
2023/12/09 00:03:23;;;;;;;;;13.00;12.00;;;;;13.27;100.00;100699.34;2087706;28;46150;-56
2023/12/09 00:04:23;;;;;;;;;12.00;11.33;;;;;13.24;100.00;100698.53;2087994;28;46314;-56
2023/12/09 00:05:24;;;;;;;;;13.33;11.00;;;;;13.25;100.00;100694.06;2089005;28;46690;-55
2023/12/09 00:06:24;;;;;;;;;11.67;10.33;;;;;13.24;100.00;100695.88;2089289;28;46769;-55
2023/12/09 00:07:24;;;;;;;;;10.33;9.67;;;;;13.24;100.00;100692.34;2089262;28;46962;-55
2023/12/09 00:08:25;;;;;;;;;17.67;15.33;;;;;13.24;100.00;100681.69;2086657;28;46759;-55
2023/12/09 00:09:25;;;;;;;;;13.33;12.00;;;;;13.22;100.00;100687.06;2089347;28;46780;-55
2023/12/09 00:10:25;;;;;;;;;17.00;14.00;;;;;13.21;100.00;100693.31;2090002;28;46010;-56
2023/12/09 00:11:26;;;;;;;;;13.00;12.33;;;;;13.21;100.00;100684.41;2088680;28;46684;-56
2023/12/09 00:12:26;;;;;;;;;12.67;12.67;;;;;13.19;100.00;100673.81;2089099;28;46880;-56
2023/12/09 00:13:26;;;;;;;;;13.00;12.33;;;;;13.18;100.00;100672.06;2087132;28;46181;-56
2023/12/09 00:14:27;;;;;;;;;13.33;13.33;;;;;13.16;100.00;100681.00;2088643;28;46352;-57
2023/12/09 00:15:27;;;;;;;;;16.33;15.33;;;;;13.16;100.00;100683.69;2089226;28;46393;-57
2023/12/09 00:16:27;;;;;;;;;12.33;12.33;;;;;13.15;100.00;100674.81;2096770;28;46038;-54
2023/12/09 00:17:28;;;;;;;;;15.67;13.67;;;;;13.15;100.00;100673.94;2096890;28;46515;-55
2023/12/09 00:18:28;;;;;;;;;14.00;13.33;;;;;13.15;100.00;100679.28;2089857;28;46818;-57
2023/12/09 00:19:29;;;;;;;;;13.33;12.67;;;;;13.13;100.00;100668.66;2087710;28;46512;-56
2023/12/09 00:20:29;;;;;;;;;13.75;11.50;;;;;13.10;100.00;100673.25;2086884;28;46690;-57
2023/12/09 00:21:30;;;;;;;;;13.33;11.67;;;;;13.09;100.00;100674.16;2088835;28;46793;-56
2023/12/09 00:22:30;;;;;;;;;17.67;16.00;;;;;13.07;100.00;100668.84;2088178;28;46162;-57
2023/12/09 00:23:30;;;;;;;;;11.67;11.67;;;;;13.06;100.00;100674.25;2088194;28;46517;-55
2023/12/09 00:24:31;;;;;;;;;12.33;11.33;;;;;13.03;100.00;100675.22;2089381;28;46943;-55
2023/12/09 00:25:31;;;;;;;;;15.33;13.00;;;;;13.03;100.00;100669.03;2089223;28;46576;-55
2023/12/09 00:26:31;;;;;;;;;14.67;13.00;;;;;13.01;100.00;100677.06;2089041;28;46789;-56
2023/12/09 00:27:32;;;;;;;;;16.33;15.33;;;;;13.01;100.00;100684.19;2089034;28;46722;-55
2023/12/09 00:28:32;;;;;;;;;12.33;11.33;;;;;13.00;100.00;100680.66;2071592;28;46291;-57
2023/12/09 00:29:32;;;;;;;;;13.67;12.67;;;;;12.99;100.00;100678.03;2071960;28;46911;-57
2023/12/09 00:30:32;;;;;;;;;9.67;9.67;;;;;13.01;100.00;100681.53;2087005;28;46576;-54
2023/12/09 00:31:33;;;;;;;;;13.33;13.33;;;;;13.03;100.00;100677.00;2088904;28;46452;-56
2023/12/09 00:32:33;;;;;;;;;16.33;13.00;;;;;13.02;100.00;100680.59;2089025;28;47111;-56
2023/12/09 00:33:35;;;;;;;;;13.00;13.00;;;;;13.01;100.00;100681.53;2088965;28;46025;-56
2023/12/09 00:34:35;;;;;;;;;15.00;13.50;;;;;12.98;100.00;100682.50;2088915;28;46100;-52
2023/12/09 00:35:36;;;;;;;;;15.00;12.33;;;;;12.99;100.00;100686.03;2089241;28;46217;-55
2023/12/09 00:36:36;;;;;;;;;12.67;12.00;;;;;12.96;100.00;100685.22;2088858;28;46307;-55
2023/12/09 00:37:36;;;;;;;;;15.33;13.67;;;;;12.98;100.00;100692.28;2089399;28;46288;-56
2023/12/09 00:38:37;;;;;;;;;9.33;9.33;;;;;12.98;100.00;100698.47;2088801;28;46771;-57
2023/12/09 00:39:37;;;;;;;;;9.67;9.00;;;;;12.95;100.00;100695.88;2088868;28;46215;-56
2023/12/09 00:40:37;;;;;;;;;12.33;11.33;;;;;12.99;100.00;100694.88;2089146;28;46980;-56
2023/12/09 00:41:38;;;;;;;;;9.67;9.67;;;;;12.99;100.00;100694.03;2088828;28;46601;-53
2023/12/09 00:42:38;;;;;;;;;11.00;10.00;;;;;12.98;100.00;100697.59;2089153;28;46652;-55
2023/12/09 00:43:38;;;;;;;;;12.00;10.33;;;;;12.94;100.00;100691.47;2089606;28;46336;-57
2023/12/09 00:44:39;;;;;;;;;11.67;10.00;;;;;12.93;100.00;100687.06;2089263;28;46752;-57
2023/12/09 00:45:39;;;;;;;;;12.67;10.00;;;;;12.92;100.00;100688.00;2087592;28;46168;-54
2023/12/09 00:46:39;;;;;;;;;11.67;11.67;;;;;12.92;100.00;100696.88;2088624;28;46653;-57
2023/12/09 00:47:40;;;;;;;;;14.33;13.00;;;;;12.93;100.00;100692.41;2088972;28;46236;-56
2023/12/09 00:48:40;;;;;;;;;12.33;10.33;;;;;12.93;100.00;100689.75;2097027;28;46190;-55
2023/12/09 00:49:40;;;;;;;;;10.00;8.33;;;;;12.92;100.00;100688.88;2091564;28;46059;-55
2023/12/09 00:50:41;;;;;;;;;10.00;7.00;;;;;12.91;100.00;100687.13;2089115;28;46862;-58
2023/12/09 00:51:41;;;;;;;;;15.00;11.00;;;;;12.91;100.00;100688.94;2088852;28;46537;-52
2023/12/09 00:52:41;;;;;;;;;12.33;11.00;;;;;12.91;100.00;100691.59;2089411;28;46255;-55
2023/12/09 00:53:42;;;;;;;;;9.67;9.00;;;;;12.91;100.00;100688.94;2089052;28;46364;-55
2023/12/09 00:54:42;;;;;;;;;9.33;8.00;;;;;12.92;100.00;100680.88;2089025;28;46843;-54
2023/12/09 00:55:42;;;;;;;;;12.67;12.00;;;;;12.92;100.00;100690.66;2088953;28;46252;-53
2023/12/09 00:56:43;;;;;;;;;12.33;10.00;;;;;12.92;100.00;100685.34;2088371;28;46291;-54
2023/12/09 00:57:43;;;;;;;;;12.00;9.00;;;;;12.92;100.00;100691.53;2074392;28;46756;-56
2023/12/09 00:58:43;;;;;;;;;10.00;9.00;;;;;12.89;100.00;100683.66;2079680;28;46490;-58
2023/12/09 00:59:44;;;;;;;;;8.33;8.33;;;;;12.90;100.00;100687.19;2088336;28;46624;-55
2023/12/09 01:00:44;;;;;;;;;10.00;9.00;;;;;12.90;100.00;100679.19;2088865;28;45731;-56
2023/12/09 01:01:45;;;;;;;;;11.00;10.00;;;;;12.90;100.00;100680.06;2088846;28;46242;-57
2023/12/09 01:02:45;;;;;;;;;10.00;10.00;;;;;12.90;100.00;100681.84;2088436;28;46861;-55
2023/12/09 01:03:46;;;;;;;;;8.00;8.00;;;;;12.89;100.00;100669.47;2085962;28;46294;-53
2023/12/09 01:04:46;;;;;;;;;10.33;9.67;;;;;12.89;100.00;100673.00;2082831;28;46278;-57
2023/12/09 01:05:46;;;;;;;;;9.00;9.00;;;;;12.89;100.00;100674.78;2085907;28;46460;-56
2023/12/09 01:06:47;;;;;;;;;11.67;9.67;;;;;12.90;100.00;100671.19;2089016;28;46771;-53
2023/12/09 01:07:47;;;;;;;;;9.33;9.33;;;;;12.89;100.00;100674.78;2088698;28;47405;-56
2023/12/09 01:08:47;;;;;;;;;5.67;5.00;;;;;12.90;100.00;100673.88;2086181;28;46162;-54
2023/12/09 01:09:48;;;;;;;;;10.00;9.00;;;;;12.92;100.00;100672.03;2089261;28;46205;-57
2023/12/09 01:10:48;;;;;;;;;9.33;7.00;;;;;12.91;100.00;100673.81;2088821;28;46402;-55
2023/12/09 01:11:48;;;;;;;;;12.00;9.67;;;;;12.92;100.00;100672.88;2088758;28;46843;-53
2023/12/09 01:12:49;;;;;;;;;10.00;7.00;;;;;12.91;100.00;100667.63;2088782;28;46791;-55
2023/12/09 01:13:49;;;;;;;;;11.67;10.00;;;;;12.91;100.00;100675.59;2070853;28;46343;-55
2023/12/09 01:14:49;;;;;;;;;11.00;10.00;;;;;12.90;100.00;100674.75;2071873;28;46151;-56
2023/12/09 01:15:49;;;;;;;;;8.33;8.33;;;;;12.90;100.00;100666.75;2086134;28;47924;-57
2023/12/09 01:16:50;;;;;;;;;10.33;9.33;;;;;12.90;100.00;100677.41;2088299;28;46512;-54
2023/12/09 01:17:50;;;;;;;;;9.33;9.00;;;;;12.90;100.00;100674.75;2088893;28;46203;-53
2023/12/09 01:18:50;;;;;;;;;6.67;6.00;;;;;12.89;100.00;100675.66;2088856;28;46743;-55
2023/12/09 01:19:51;;;;;;;;;8.67;8.67;;;;;12.88;100.00;100673.91;2088806;28;46310;-55
2023/12/09 01:20:51;;;;;;;;;9.33;8.33;;;;;12.89;100.00;100678.31;2083454;28;46403;-53
2023/12/09 01:21:51;;;;;;;;;10.00;9.00;;;;;12.91;100.00;100686.25;2088965;28;46358;-56
2023/12/09 01:22:52;;;;;;;;;11.00;8.00;;;;;12.89;100.00;100674.78;2088884;28;46220;-55
2023/12/09 01:23:52;;;;;;;;;13.33;10.33;;;;;12.87;100.00;100676.63;2089079;28;46703;-55
2023/12/09 01:24:52;;;;;;;;;11.00;10.00;;;;;12.89;100.00;100680.13;2088876;28;46475;-56
2023/12/09 01:25:53;;;;;;;;;12.33;9.00;;;;;12.87;100.00;100672.19;2088786;28;46696;-53
2023/12/09 01:26:53;;;;;;;;;15.67;12.00;;;;;12.86;100.00;100681.09;2088991;28;46452;-50
2023/12/09 01:27:53;;;;;;;;;10.67;10.67;;;;;12.86;100.00;100682.88;2089065;28;47027;-52
2023/12/09 01:28:54;;;;;;;;;10.00;8.67;;;;;12.83;100.00;100682.97;2088794;28;46791;-52
2023/12/09 01:29:54;;;;;;;;;11.67;10.00;;;;;12.82;100.00;100675.88;2088772;28;46458;-55
2023/12/09 01:30:54;;;;;;;;;10.33;10.00;;;;;12.81;100.00;100683.00;2089027;28;46463;-55
2023/12/09 01:31:55;;;;;;;;;10.00;10.00;;;;;12.82;100.00;100678.56;2088479;28;46352;-57
2023/12/09 01:32:55;;;;;;;;;11.00;10.00;;;;;12.82;100.00;100675.88;2088644;28;45112;-57
2023/12/09 01:33:56;;;;;;;;;11.00;9.67;;;;;12.82;100.00;100675.88;2089585;28;46356;-56
2023/12/09 01:34:57;;;;;;;;;9.33;9.00;;;;;12.84;100.00;100674.94;2088853;28;46890;-55
2023/12/09 01:35:57;;;;;;;;;12.33;10.67;;;;;12.85;100.00;100678.47;2088918;28;46106;-54
2023/12/09 01:36:57;;;;;;;;;10.00;10.00;;;;;12.84;100.00;100679.41;2086586;28;46029;-55
2023/12/09 01:37:58;;;;;;;;;10.67;9.33;;;;;12.82;100.00;100676.75;2088275;28;46118;-56
2023/12/09 01:38:58;;;;;;;;;8.00;7.67;;;;;12.80;100.00;100673.28;2088778;28;46870;-54
2023/12/09 01:39:58;;;;;;;;;13.00;11.00;;;;;12.80;100.00;100672.41;2088770;28;46539;-56
2023/12/09 01:40:58;;;;;;;;;13.00;11.00;;;;;12.81;100.00;100668.81;2088110;28;46154;-55
2023/12/09 01:42:00;;;;;;;;;9.33;9.33;;;;;12.79;100.00;100668.88;2091465;28;46933;-58
2023/12/09 01:43:00;;;;;;;;;12.25;11.75;;;;;12.79;100.00;100668.00;2084776;28;46728;-55
2023/12/09 01:44:00;;;;;;;;;16.00;13.67;;;;;12.80;100.00;100661.75;2088636;28;46623;-56
2023/12/09 01:45:01;;;;;;;;;15.67;12.00;;;;;12.79;100.00;100668.88;2088766;28;45742;-57
2023/12/09 01:46:06;;;;;;;;;9.00;5.33;;;;;12.77;100.00;100662.72;2088516;28;46411;-55
2023/12/09 01:47:07;;;;;;;;;15.50;12.50;;;;;12.76;100.00;100658.34;2088700;28;46650;-56
2023/12/09 01:48:08;;;;;;;;;12.67;12.00;;;;;12.73;100.00;100666.41;2088502;28;46172;-53
2023/12/09 01:49:08;;;;;;;;;9.00;9.00;;;;;12.73;100.00;100661.09;2088707;28;46121;-54
2023/12/09 01:50:10;;;;;;;;;15.00;10.33;;;;;12.72;100.00;100669.13;2089148;28;46409;-55
2023/12/09 01:51:11;;;;;;;;;13.50;10.75;;;;;12.73;100.00;100662.88;2088721;28;46287;-56
2023/12/09 01:52:12;;;;;;;;;14.75;13.75;;;;;12.73;100.00;100663.75;2088695;28;46145;-56
2023/12/09 01:53:13;;;;;;;;;12.50;10.50;;;;;12.73;100.00;100658.44;2088666;28;46402;-52
2023/12/09 01:54:14;;;;;;;;;12.00;11.00;;;;;12.74;100.00;100662.84;2078254;28;46383;-54
2023/12/09 01:55:15;;;;;;;;;9.25;9.25;;;;;12.73;100.00;100663.75;2077617;28;46637;-55
2023/12/09 01:56:17;;;;;;;;;14.25;11.00;;;;;12.73;100.00;100663.75;2088739;28;46455;-56
2023/12/09 01:57:18;;;;;;;;;11.50;10.00;;;;;12.73;100.00;100658.44;2088714;28;46777;-54
2023/12/09 01:58:19;;;;;;;;;10.00;9.67;;;;;12.72;100.00;100659.34;2089219;28;46563;-55
2023/12/09 01:59:19;;;;;;;;;9.50;9.50;;;;;12.77;100.00;100659.19;2088725;28;46718;-56
2023/12/09 02:00:20;;;;;;;;;12.00;12.00;;;;;12.76;100.00;100649.47;2088115;28;46320;-55
2023/12/09 02:01:21;;;;;;;;;13.67;12.00;;;;;12.77;100.00;100651.22;2087955;28;47172;-55
2023/12/09 02:02:21;;;;;;;;;10.00;10.00;;;;;12.75;100.00;100651.25;2088501;28;46596;-56
2023/12/09 02:03:21;;;;;;;;;11.00;10.33;;;;;12.76;100.00;100655.66;2088557;28;46849;-56
2023/12/09 02:04:22;;;;;;;;;13.00;11.67;;;;;12.74;100.00;100651.31;2088575;28;46415;-54
2023/12/09 02:05:23;;;;;;;;;13.33;11.00;;;;;12.75;100.00;100647.72;2088620;28;46615;-54
2023/12/09 02:06:23;;;;;;;;;9.33;9.33;;;;;12.74;100.00;100648.66;2088719;28;46171;-54
2023/12/09 02:07:23;;;;;;;;;15.67;12.67;;;;;12.73;100.00;100638.94;2088807;28;46946;-57
2023/12/09 02:08:24;;;;;;;;;13.33;13.33;;;;;12.75;100.00;100637.06;2088395;28;46698;-55
2023/12/09 02:09:24;;;;;;;;;13.00;13.00;;;;;12.76;100.00;100646.81;2088833;28;46808;-53
2023/12/09 02:10:26;;;;;;;;;13.67;12.33;;;;;12.75;100.00;100648.59;2085612;28;46525;-55
2023/12/09 02:11:55;;;;;;;;;15.75;13.00;;;;;12.74;100.00;100638.00;2088527;28;46512;-55
2023/12/09 02:12:58;;;;;;;;;14.00;12.00;;;;;12.71;100.00;100630.13;2080946;28;46599;-54
2023/12/09 02:14:04;;;;;;;;;14.00;12.75;;;;;12.70;100.00;100621.22;2088919;28;46847;-55
2023/12/09 02:15:11;;;;;;;;;18.50;14.25;;;;;12.70;100.00;100623.88;2088440;28;46289;-54
2023/12/09 02:16:22;;;;;;;;;14.25;11.50;;;;;12.70;100.00;100617.69;2088057;28;46411;-54
2023/12/09 02:17:39;;;;;;;;;14.75;14.00;;;;;12.72;100.00;100618.53;2088529;28;46286;-57
2023/12/09 02:18:43;;;;;;;;;13.75;13.00;;;;;12.71;100.00;100614.16;2088443;28;46410;-55
2023/12/09 02:19:44;;;;;;;;;15.50;12.50;;;;;12.70;100.00;100615.03;2088936;28;46205;-57
2023/12/09 02:20:44;;;;;;;;;12.00;11.75;;;;;12.69;100.00;100611.50;2088664;28;47099;-52
2023/12/09 02:22:02;;;;;;;;;16.33;12.00;;;;;12.67;100.00;100614.22;2088674;28;45550;-55
2023/12/09 02:23:09;;;;;;;;;16.00;13.25;;;;;12.65;100.00;100605.41;2088587;28;46980;-54
2023/12/09 02:24:10;;;;;;;;;15.00;12.75;;;;;12.61;100.00;100603.78;2088804;28;46508;-52
2023/12/09 02:25:10;;;;;;;;;14.00;14.00;;;;;12.61;100.00;100602.91;2088594;28;46112;-54
2023/12/09 02:26:18;;;;;;;;;13.67;13.67;;;;;12.61;100.00;100600.25;2087933;28;46436;-50
2023/12/09 02:27:27;;;;;;;;;17.25;14.25;;;;;12.59;100.00;100591.44;2082982;28;46519;-55
2023/12/09 02:28:28;;;;;;;;;14.25;12.75;;;;;12.59;100.00;100597.63;2088902;28;46612;-54
2023/12/09 02:29:34;;;;;;;;;12.75;12.75;;;;;12.59;100.00;100594.97;2088437;28;46422;-53
2023/12/09 02:30:55;;;;;;;;;17.00;14.50;;;;;12.60;100.00;100588.72;2084999;28;46535;-55
2023/12/09 02:32:02;;;;;;;;;17.75;15.75;;;;;12.57;100.00;100588.81;2087901;28;46748;-54
2023/12/09 02:33:04;;;;;;;;;15.25;14.00;;;;;12.55;100.00;100582.66;2088245;28;46605;-54
2023/12/09 02:34:06;;;;;;;;;17.50;15.00;;;;;12.54;100.00;100585.38;2087874;28;46369;-55
2023/12/09 02:35:10;;;;;;;;;14.50;13.25;;;;;12.52;100.00;100580.09;2087753;28;46482;-52
2023/12/09 02:36:16;;;;;;;;;17.25;15.50;;;;;12.53;100.00;100567.66;2080732;28;46749;-53
2023/12/09 02:37:20;;;;;;;;;12.75;12.25;;;;;12.53;100.00;100559.69;2088310;28;46607;-55
2023/12/09 02:38:21;;;;;;;;;18.25;16.75;;;;;12.52;100.00;100566.78;2088157;28;46807;-54
2023/12/09 02:39:22;;;;;;;;;17.25;17.00;;;;;12.53;100.00;100565.88;2088410;28;46624;-57
2023/12/09 02:40:23;;;;;;;;;15.00;15.00;;;;;12.53;100.00;100570.31;2086450;28;46536;-57
2023/12/09 02:41:24;;;;;;;;;17.25;16.25;;;;;12.53;100.00;100565.88;2083491;28;46187;-56
2023/12/09 02:42:25;;;;;;;;;16.25;15.50;;;;;12.54;100.00;100567.59;2088831;28;46259;-55
2023/12/09 02:43:26;;;;;;;;;9.50;9.50;;;;;12.54;100.00;100564.94;2082728;28;46971;-55
2023/12/09 02:44:26;;;;;;;;;17.67;15.00;;;;;12.54;100.00;100570.28;2088396;28;46708;-55
2023/12/09 02:45:26;;;;;;;;;15.67;14.67;;;;;12.54;100.00;100567.59;2087657;28;46099;-56
2023/12/09 02:46:27;;;;;;;;;17.67;12.67;;;;;12.57;100.00;100558.66;2087736;28;46943;-53
2023/12/09 02:47:27;;;;;;;;;17.67;16.67;;;;;12.56;100.00;100551.59;2088103;28;46209;-52
2023/12/09 02:48:28;;;;;;;;;19.33;18.33;;;;;12.58;100.00;100557.75;2088945;28;46832;-52
2023/12/09 02:49:28;;;;;;;;;15.00;14.00;;;;;12.58;100.00;100560.41;2088376;28;46566;-52
2023/12/09 02:50:28;;;;;;;;;16.00;16.00;;;;;12.59;100.00;100559.50;2088449;28;46772;-54
2023/12/09 02:51:29;;;;;;;;;18.00;14.67;;;;;12.59;100.00;100560.38;2088237;28;47123;-53
2023/12/09 02:52:29;;;;;;;;;17.00;14.00;;;;;12.59;100.00;100557.72;2088000;28;46644;-55
2023/12/09 02:53:29;;;;;;;;;18.33;18.00;;;;;12.57;100.00;100554.19;2088302;28;45540;-52
2023/12/09 02:54:30;;;;;;;;;13.33;12.00;;;;;12.53;100.00;100555.22;2088286;28;47648;-55
2023/12/09 02:55:30;;;;;;;;;15.00;13.67;;;;;12.52;100.00;100555.28;2078637;28;46879;-54
2023/12/09 02:56:30;;;;;;;;;19.00;15.67;;;;;12.50;100.00;100563.31;2078747;28;46388;-53
2023/12/09 02:57:31;;;;;;;;;16.67;14.33;;;;;12.49;100.00;100550.06;2087865;28;45605;-54
2023/12/09 02:58:31;;;;;;;;;14.33;14.00;;;;;12.48;100.00;100562.50;2087529;28;46321;-54
2023/12/09 02:59:31;;;;;;;;;11.33;10.67;;;;;12.55;100.00;100555.16;2085847;28;46672;-56
2023/12/09 03:00:32;;;;;;;;;17.33;14.00;;;;;12.58;100.00;100558.63;2085937;28;46452;-58
2023/12/09 03:01:32;;;;;;;;;10.33;9.67;;;;;12.59;100.00;100556.84;2088326;28;46295;-56
2023/12/09 03:02:32;;;;;;;;;16.33;14.00;;;;;12.60;100.00;100547.94;2088177;28;46460;-58
2023/12/09 03:03:32;;;;;;;;;15.00;13.33;;;;;12.61;100.00;100549.66;2087591;28;46285;-56
2023/12/09 03:04:33;;;;;;;;;16.67;13.67;;;;;12.62;100.00;100546.09;2087699;28;46311;-54
2023/12/09 03:05:33;;;;;;;;;17.00;15.67;;;;;12.62;100.00;100540.75;2086953;28;46716;-57
2023/12/09 03:06:34;;;;;;;;;18.33;14.67;;;;;12.63;100.00;100542.50;2084915;28;46600;-58
2023/12/09 03:07:34;;;;;;;;;13.67;12.67;;;;;12.65;100.00;100545.97;2088347;28;46380;-56
2023/12/09 03:08:34;;;;;;;;;15.33;15.33;;;;;12.65;100.00;100537.97;2087384;28;46238;-55
2023/12/09 03:09:35;;;;;;;;;14.67;14.67;;;;;12.61;100.00;100528.38;2087719;28;46690;-53
2023/12/09 03:10:35;;;;;;;;;15.33;12.67;;;;;12.60;100.00;100521.31;2088140;28;46384;-57
2023/12/09 03:11:35;;;;;;;;;13.33;13.33;;;;;12.61;100.00;100526.56;2088092;28;46682;-54
2023/12/09 03:12:36;;;;;;;;;13.33;11.67;;;;;12.62;100.00;100525.66;2087891;28;46620;-56
2023/12/09 03:13:36;;;;;;;;;15.33;14.33;;;;;12.62;100.00;100525.66;2088302;28;46375;-57
2023/12/09 03:14:36;;;;;;;;;11.00;11.00;;;;;12.62;100.00;100515.00;2088318;28;47345;-54
2023/12/09 03:15:36;;;;;;;;;13.00;13.00;;;;;12.64;100.00;100514.94;2087804;28;46462;-56
2023/12/09 03:16:37;;;;;;;;;11.67;11.67;;;;;12.65;100.00;100503.38;2083536;28;46663;-56
2023/12/09 03:17:38;;;;;;;;;14.25;12.75;;;;;12.65;100.00;100511.34;2088692;28;47109;-56
2023/12/09 03:18:38;;;;;;;;;13.33;12.33;;;;;12.63;100.00;100503.44;2088618;28;45692;-57
2023/12/09 03:19:38;;;;;;;;;15.67;13.33;;;;;12.63;100.00;100498.09;2088300;28;46667;-55
2023/12/09 03:20:39;;;;;;;;;17.00;15.00;;;;;12.63;100.00;100497.22;2088258;28;46868;-57
2023/12/09 03:21:39;;;;;;;;;15.00;13.33;;;;;12.62;100.00;100491.03;2088169;28;46794;-55
2023/12/09 03:22:39;;;;;;;;;15.33;14.00;;;;;12.53;100.00;100486.03;2086794;28;46059;-54
2023/12/09 03:23:43;;;;;;;;;15.00;12.33;;;;;12.52;100.00;100489.59;2085911;28;46164;-57
2023/12/09 03:24:43;;;;;;;;;17.50;11.75;;;;;12.52;100.00;100489.59;2087567;28;46690;-55
2023/12/09 03:25:44;;;;;;;;;12.67;11.00;;;;;12.49;100.00;100491.50;2088461;28;46981;-56
2023/12/09 03:26:48;;;;;;;;;13.00;12.00;;;;;12.51;100.00;100489.66;2088281;28;46522;-56
2023/12/09 03:27:49;;;;;;;;;16.25;14.25;;;;;12.53;100.00;100487.81;2088148;28;46717;-56
2023/12/09 03:28:49;;;;;;;;;13.00;12.00;;;;;12.54;100.00;100481.56;2088091;28;46628;-56
2023/12/09 03:29:50;;;;;;;;;17.33;14.00;;;;;12.55;100.00;100488.63;2087818;28;46226;-55
2023/12/09 03:30:50;;;;;;;;;16.00;13.33;;;;;12.54;100.00;100482.44;2088191;28;46447;-53
2023/12/09 03:31:51;;;;;;;;;15.00;13.67;;;;;12.54;100.00;100478.91;2085418;28;46234;-55
2023/12/09 03:32:51;;;;;;;;;12.00;11.33;;;;;12.55;100.00;100475.31;2087468;28;46460;-56
2023/12/09 03:33:51;;;;;;;;;14.00;13.00;;;;;12.55;100.00;100470.84;2087732;28;47632;-55
2023/12/09 03:34:52;;;;;;;;;14.00;11.00;;;;;12.61;100.00;100467.13;2088106;28;46328;-56
2023/12/09 03:35:52;;;;;;;;;12.67;11.00;;;;;12.65;100.00;100463.44;2087927;28;46651;-54
2023/12/09 03:36:52;;;;;;;;;10.00;8.00;;;;;12.66;100.00;100465.19;2088659;28;46808;-53
2023/12/09 03:37:52;;;;;;;;;13.33;13.33;;;;;12.64;100.00;100465.22;2088224;28;46661;-55
2023/12/09 03:38:53;;;;;;;;;12.67;12.00;;;;;12.65;100.00;100472.28;2088429;28;45884;-55
2023/12/09 03:39:53;;;;;;;;;14.00;12.00;;;;;12.66;100.00;100470.50;2088389;28;46375;-56
2023/12/09 03:40:54;;;;;;;;;16.33;14.33;;;;;12.68;100.00;100473.97;2088447;28;46477;-54
2023/12/09 03:41:54;;;;;;;;;12.00;12.00;;;;;12.68;100.00;100473.97;2087963;28;45768;-56
2023/12/09 03:42:54;;;;;;;;;20.00;15.33;;;;;12.68;100.00;100463.31;2087972;28;46856;-54
2023/12/09 03:43:55;;;;;;;;;13.67;11.67;;;;;12.70;100.00;100465.94;2088106;28;46133;-56
2023/12/09 03:44:55;;;;;;;;;18.50;15.50;;;;;12.70;100.00;100461.47;2087553;28;46448;-54
2023/12/09 03:45:56;;;;;;;;;25.25;23.00;;;;;12.71;100.00;100459.72;2087459;28;46354;-53
2023/12/09 03:46:56;;;;;;;;;31.50;31.25;;;;;12.71;100.00;100449.94;2085822;28;46705;-55
2023/12/09 03:47:56;;;;;;;;;21.67;18.00;;;;;12.75;100.00;100458.69;2087804;28;46238;-53
2023/12/09 03:48:57;;;;;;;;;21.67;19.67;;;;;12.72;100.00;100451.66;2084922;28;46403;-53
2023/12/09 03:49:57;;;;;;;;;25.75;24.00;;;;;12.74;100.00;100443.63;2087907;28;46803;-55
2023/12/09 03:50:57;;;;;;;;;16.00;13.00;;;;;12.76;100.00;100444.44;2087980;28;45842;-53
2023/12/09 03:51:58;;;;;;;;;17.67;16.00;;;;;12.77;100.00;100441.72;2087823;28;46219;-55
2023/12/09 03:52:58;;;;;;;;;19.00;19.00;;;;;12.78;100.00;100432.81;2088088;28;46440;-54
2023/12/09 03:53:59;;;;;;;;;16.00;13.00;;;;;12.81;100.00;100439.81;2087896;28;45534;-55
2023/12/09 03:54:59;;;;;;;;;12.25;10.75;;;;;12.81;100.00;100435.34;2088013;28;46941;-56
2023/12/09 03:56:00;;;;;;;;;22.25;20.00;;;;;12.81;100.00;100437.16;2087806;28;46245;-57
2023/12/09 03:57:01;;;;;;;;;15.00;15.00;;;;;12.82;100.00;100433.56;2095111;28;46833;-55
2023/12/09 03:58:01;;;;;;;;;15.00;15.00;;;;;12.82;100.00;100437.09;2095306;28;46580;-57
2023/12/09 03:59:01;;;;;;;;;11.33;11.00;;;;;12.82;100.00;100437.09;2087949;28;46522;-56
2023/12/09 04:00:04;;;;;;;;;13.00;10.67;;;;;12.82;100.00;100436.22;2087977;28;46455;-56
2023/12/09 04:01:05;;;;;;;;;11.50;10.25;;;;;12.82;100.00;100441.53;2088235;28;45681;-53
2023/12/09 04:02:05;;;;;;;;;10.33;9.33;;;;;12.80;100.00;100440.72;2087636;28;46602;-55
2023/12/09 04:03:05;;;;;;;;;10.00;10.00;;;;;12.80;100.00;100433.63;2087712;28;45734;-54
2023/12/09 04:04:06;;;;;;;;;11.33;10.00;;;;;12.80;100.00;100433.63;2087025;28;46641;-55
2023/12/09 04:05:06;;;;;;;;;10.33;9.67;;;;;12.80;100.00;100430.94;2086208;28;46708;-54
2023/12/09 04:06:07;;;;;;;;;10.33;10.33;;;;;12.82;100.00;100426.44;2084515;28;46628;-57
2023/12/09 04:07:07;;;;;;;;;9.00;8.33;;;;;12.82;100.00;100428.22;2086153;28;46658;-54
2023/12/09 04:08:08;;;;;;;;;11.00;10.67;;;;;12.82;100.00;100430.88;2085409;28;46704;-55
2023/12/09 04:09:11;;;;;;;;;12.00;11.00;;;;;12.81;100.00;100426.50;2078071;28;46471;-54
2023/12/09 04:10:12;;;;;;;;;11.00;11.00;;;;;12.79;100.00;100417.69;2078729;28;46541;-55
2023/12/09 04:11:13;;;;;;;;;14.00;11.33;;;;;12.80;100.00;100414.97;2086531;28;46680;-56
2023/12/09 04:12:13;;;;;;;;;13.67;12.00;;;;;12.83;100.00;100414.00;2086708;28;46198;-54
2023/12/09 04:13:13;;;;;;;;;13.00;11.00;;;;;12.83;100.00;100408.66;2087939;28;46243;-56
2023/12/09 04:14:14;;;;;;;;;11.67;9.00;;;;;12.84;100.00;100397.13;2087492;28;46441;-55
2023/12/09 04:15:14;;;;;;;;;10.00;10.00;;;;;12.84;100.00;100405.97;2088371;28;46328;-55
2023/12/09 04:16:14;;;;;;;;;10.00;10.00;;;;;12.85;100.00;100404.19;2087848;28;46547;-54
2023/12/09 04:17:15;;;;;;;;;15.00;12.67;;;;;12.85;100.00;100401.50;2087708;28;46255;-53
2023/12/09 04:18:15;;;;;;;;;10.67;10.00;;;;;12.84;100.00;100403.31;2088125;28;45641;-54
2023/12/09 04:19:16;;;;;;;;;9.67;9.00;;;;;12.86;100.00;100400.59;2087579;28;46720;-55
2023/12/09 04:20:17;;;;;;;;;11.00;11.00;;;;;12.85;100.00;100399.72;2087689;28;46594;-54
2023/12/09 04:21:17;;;;;;;;;12.00;12.00;;;;;12.86;100.00;100392.59;2084502;28;46502;-56
2023/12/09 04:22:18;;;;;;;;;8.75;8.25;;;;;12.87;100.00;100391.66;2086946;28;46247;-52
2023/12/09 04:23:21;;;;;;;;;8.33;8.00;;;;;12.85;100.00;100381.06;2087611;28;46389;-57
2023/12/09 04:24:21;;;;;;;;;12.50;9.00;;;;;12.85;100.00;100377.53;2087712;28;46628;-56
2023/12/09 04:25:22;;;;;;;;;12.00;9.00;;;;;12.85;100.00;100382.88;2080024;28;46217;-54
2023/12/09 04:26:23;;;;;;;;;10.33;8.67;;;;;12.85;100.00;100399.72;2084038;28;46143;-53
2023/12/09 04:27:24;;;;;;;;;12.00;10.50;;;;;12.83;100.00;100390.03;2087724;28;46446;-54
2023/12/09 04:28:24;;;;;;;;;8.00;8.00;;;;;12.84;100.00;100392.66;2087916;28;46280;-53
2023/12/09 04:29:24;;;;;;;;;11.67;9.33;;;;;12.83;100.00;100390.03;2086256;28;46814;-57
2023/12/09 04:30:25;;;;;;;;;9.00;8.00;;;;;12.84;100.00;100397.97;2087134;28;45879;-57
2023/12/09 04:31:25;;;;;;;;;8.67;8.00;;;;;12.83;100.00;100404.22;2087806;28;46300;-56
2023/12/09 04:32:31;;;;;;;;;10.67;10.00;;;;;12.85;100.00;100397.06;2087926;28;46154;-54
2023/12/09 04:33:32;;;;;;;;;12.50;10.00;;;;;12.84;100.00;100400.66;2087700;28;46797;-54
2023/12/09 04:34:33;;;;;;;;;9.67;9.67;;;;;12.85;100.00;100396.19;2087708;28;46267;-56
2023/12/09 04:35:33;;;;;;;;;10.00;8.33;;;;;12.85;100.00;100396.19;2087696;28;46676;-53